createdAt,value
2018-09-30T00:00:38.019Z,5.60
2018-09-30T00:03:05.096Z,6.10
2018-09-30T00:05:32.199Z,6.03
2018-09-30T00:07:59.315Z,5.90
2018-09-30T00:10:26.403Z,6.07
2018-09-30T00:12:53.535Z,6.07
2018-09-30T00:15:20.612Z,5.87
2018-09-30T00:17:47.689Z,5.73
2018-09-30T00:20:14.776Z,5.63
2018-09-30T00:22:41.883Z,5.90
2018-09-30T00:25:14.596Z,5.50
2018-09-30T00:27:41.695Z,6.00
2018-09-30T00:30:08.784Z,6.07
2018-09-30T00:32:35.867Z,5.70
2018-09-30T00:35:02.953Z,5.60
2018-09-30T00:37:30.044Z,5.90
2018-09-30T00:39:57.123Z,5.63
2018-09-30T00:42:24.247Z,5.27
2018-09-30T00:44:51.339Z,4.83
2018-09-30T00:47:18.428Z,5.27
2018-09-30T00:49:45.503Z,5.03
2018-09-30T00:52:12.595Z,4.83
2018-09-30T00:54:39.667Z,4.93
2018-09-30T00:57:06.743Z,5.40
2018-09-30T00:59:33.823Z,5.20
2018-09-30T01:02:00.920Z,5.10
2018-09-30T01:04:27.994Z,5.17
2018-09-30T01:06:55.103Z,4.97
2018-09-30T01:09:22.174Z,5.00
2018-09-30T01:11:49.276Z,4.47
2018-09-30T01:14:16.368Z,4.97
2018-09-30T01:16:43.439Z,4.93
2018-09-30T01:19:10.536Z,4.83
2018-09-30T01:21:37.627Z,4.40
2018-09-30T01:24:04.850Z,4.70
2018-09-30T01:26:31.928Z,4.57
2018-09-30T01:28:59.211Z,5.13
2018-09-30T01:31:26.305Z,4.33
2018-09-30T01:33:53.559Z,4.40
2018-09-30T01:36:20.635Z,4.50
2018-09-30T01:38:47.752Z,4.10
2018-09-30T01:41:14.890Z,4.33
2018-09-30T01:43:41.979Z,4.37
2018-09-30T01:46:09.098Z,3.97
2018-09-30T01:48:36.179Z,4.40
2018-09-30T01:51:03.265Z,4.43
2018-09-30T01:53:30.362Z,4.20
2018-09-30T01:55:57.462Z,4.60
2018-09-30T01:58:24.527Z,3.90
2018-09-30T02:00:51.614Z,4.33
2018-09-30T02:03:18.691Z,4.20
2018-09-30T02:05:45.797Z,4.10
2018-09-30T02:08:12.867Z,3.83
2018-09-30T02:10:40.027Z,4.13
2018-09-30T02:13:07.104Z,3.17
2018-09-30T02:15:34.207Z,3.67
2018-09-30T02:18:01.279Z,4.10
2018-09-30T02:20:28.548Z,3.77
2018-09-30T02:22:55.640Z,4.03
2018-09-30T02:25:22.731Z,4.10
2018-09-30T02:27:49.803Z,4.00
2018-09-30T02:30:16.880Z,4.20
2018-09-30T02:32:43.967Z,3.30
2018-09-30T02:35:11.065Z,3.83
2018-09-30T02:37:38.163Z,4.20
2018-09-30T02:40:05.250Z,3.70
2018-09-30T02:42:32.352Z,3.93
2018-09-30T02:44:59.455Z,3.87
2018-09-30T02:47:26.576Z,3.30
2018-09-30T02:49:53.685Z,3.57
2018-09-30T02:52:20.799Z,3.93
2018-09-30T02:54:47.898Z,3.27
2018-09-30T02:57:14.986Z,3.63
2018-09-30T02:59:42.103Z,3.47
2018-09-30T03:02:09.179Z,3.83
2018-09-30T03:04:36.295Z,3.20
2018-09-30T03:09:12.043Z,3.37
2018-09-30T03:11:39.535Z,3.40
2018-09-30T03:14:06.781Z,3.80
2018-09-30T03:16:33.843Z,3.40
2018-09-30T03:19:00.919Z,3.60
2018-09-30T03:21:27.997Z,3.37
2018-09-30T03:23:55.100Z,4.00
2018-09-30T03:26:22.216Z,3.40
2018-09-30T03:28:49.301Z,3.30
2018-09-30T03:31:16.417Z,3.73
2018-09-30T03:33:43.524Z,3.77
2018-09-30T03:36:10.654Z,3.73
2018-09-30T03:38:37.724Z,3.50
2018-09-30T03:41:04.811Z,3.23
2018-09-30T03:43:31.908Z,3.10
2018-09-30T03:45:58.991Z,3.50
2018-09-30T03:48:26.093Z,3.60
2018-09-30T03:50:53.167Z,3.10
2018-09-30T03:53:20.268Z,3.40
2018-09-30T03:55:47.381Z,3.80
2018-09-30T03:58:14.446Z,3.77
2018-09-30T04:00:41.519Z,3.30
2018-09-30T04:03:08.624Z,3.63
2018-09-30T04:05:35.721Z,3.20
2018-09-30T04:08:02.847Z,3.60
2018-09-30T04:10:29.929Z,3.60
2018-09-30T04:12:57.131Z,3.40
2018-09-30T04:15:24.533Z,3.23
2018-09-30T04:17:51.628Z,3.50
2018-09-30T04:20:18.722Z,3.60
2018-09-30T04:22:45.815Z,3.10
2018-09-30T04:25:12.936Z,3.60
2018-09-30T04:27:40.047Z,3.47
2018-09-30T04:30:07.132Z,3.60
2018-09-30T04:32:34.191Z,3.40
2018-09-30T04:35:01.296Z,3.43
2018-09-30T04:37:28.403Z,3.50
2018-09-30T04:39:55.522Z,3.13
2018-09-30T04:42:22.599Z,3.10
2018-09-30T04:44:49.664Z,3.70
2018-09-30T04:47:16.744Z,3.10
2018-09-30T04:49:43.808Z,3.30
2018-09-30T04:52:10.921Z,3.53
2018-09-30T04:54:38.003Z,3.17
2018-09-30T04:57:05.095Z,2.90
2018-09-30T04:59:32.429Z,3.37
2018-09-30T05:01:59.556Z,3.10
2018-09-30T05:04:26.762Z,3.13
2018-09-30T05:06:53.831Z,3.00
2018-09-30T05:09:20.935Z,3.80
2018-09-30T05:11:48.019Z,3.43
2018-09-30T05:14:15.164Z,2.90
2018-09-30T05:16:42.269Z,2.90
2018-09-30T05:19:09.383Z,2.80
2018-09-30T05:21:36.491Z,2.90
2018-09-30T05:24:03.605Z,3.10
2018-09-30T05:26:30.696Z,3.43
2018-09-30T05:28:57.800Z,3.17
2018-09-30T05:31:25.155Z,2.67
2018-09-30T05:33:52.279Z,2.90
2018-09-30T05:36:19.359Z,3.43
2018-09-30T05:38:46.442Z,3.10
2018-09-30T05:41:13.555Z,2.90
2018-09-30T05:43:40.660Z,2.70
2018-09-30T05:46:08.243Z,2.73
2018-09-30T05:48:35.372Z,3.40
2018-09-30T05:51:02.482Z,2.73
2018-09-30T05:53:29.576Z,2.90
2018-09-30T05:55:56.713Z,2.90
2018-09-30T05:58:23.824Z,2.63
2018-09-30T06:00:50.891Z,2.80
2018-09-30T06:03:18.002Z,2.77
2018-09-30T06:05:45.118Z,2.87
2018-09-30T06:08:12.208Z,2.67
2018-09-30T06:10:39.308Z,2.80
2018-09-30T06:13:06.377Z,2.60
2018-09-30T06:15:33.459Z,3.00
2018-09-30T06:18:00.584Z,3.10
2018-09-30T06:20:27.678Z,2.90
2018-09-30T06:22:54.757Z,2.87
2018-09-30T06:25:21.882Z,3.20
2018-09-30T06:27:48.979Z,2.97
2018-09-30T06:30:16.572Z,3.00
2018-09-30T06:32:43.707Z,2.93
2018-09-30T06:35:10.807Z,2.80
2018-09-30T06:37:37.919Z,2.87
2018-09-30T06:40:05.020Z,2.93
2018-09-30T06:42:32.123Z,2.43
2018-09-30T06:44:59.247Z,2.80
2018-09-30T06:47:26.346Z,2.30
2018-09-30T06:49:53.441Z,2.57
2018-09-30T06:52:20.565Z,2.30
2018-09-30T06:54:47.683Z,2.23
2018-09-30T06:57:14.779Z,2.53
2018-09-30T06:59:41.879Z,2.57
2018-09-30T07:02:09.003Z,2.20
2018-09-30T07:04:36.096Z,2.60
2018-09-30T07:07:03.190Z,2.30
2018-09-30T07:09:30.299Z,2.73
2018-09-30T07:11:57.410Z,2.63
2018-09-30T07:14:24.503Z,2.27
2018-09-30T07:16:51.667Z,2.60
2018-09-30T07:19:18.724Z,2.23
2018-09-30T07:21:45.889Z,2.23
2018-09-30T07:24:13.003Z,2.53
2018-09-30T07:26:40.076Z,2.17
2018-09-30T07:29:07.187Z,2.10
2018-09-30T07:31:34.287Z,2.40
2018-09-30T07:34:01.404Z,2.70
2018-09-30T07:36:28.496Z,2.67
2018-09-30T07:38:55.811Z,2.20
2018-09-30T07:41:22.919Z,2.57
2018-09-30T07:43:50.002Z,2.30
2018-09-30T07:46:17.071Z,1.93
2018-09-30T07:48:44.167Z,2.10
2018-09-30T07:51:11.242Z,2.30
2018-09-30T07:53:38.346Z,2.43
2018-09-30T07:56:05.449Z,2.17
2018-09-30T07:58:32.559Z,1.97
2018-09-30T08:00:59.663Z,2.43
2018-09-30T08:03:26.783Z,2.33
2018-09-30T08:05:53.891Z,2.40
2018-09-30T08:08:20.988Z,2.20
2018-09-30T08:10:48.082Z,2.20
2018-09-30T08:13:15.435Z,2.07
2018-09-30T08:15:42.531Z,2.40
2018-09-30T08:18:09.615Z,1.97
2018-09-30T08:20:36.716Z,2.07
2018-09-30T08:23:03.825Z,2.10
2018-09-30T08:25:30.913Z,1.87
2018-09-30T08:27:58.025Z,2.20
2018-09-30T08:30:25.093Z,1.73
2018-09-30T08:32:52.194Z,1.83
2018-09-30T08:35:19.308Z,2.20
2018-09-30T08:37:52.275Z,1.80
2018-09-30T08:40:25.191Z,1.50
2018-09-30T08:42:52.316Z,2.13
2018-09-30T08:45:19.416Z,1.63
2018-09-30T08:47:46.563Z,2.07
2018-09-30T08:50:13.639Z,2.37
2018-09-30T08:52:40.758Z,1.80
2018-09-30T08:55:07.848Z,2.10
2018-09-30T08:57:34.939Z,1.70
2018-09-30T09:00:02.052Z,1.90
2018-09-30T09:02:29.131Z,2.30
2018-09-30T09:04:56.263Z,1.97
2018-09-30T09:07:23.732Z,2.13
2018-09-30T09:09:50.840Z,1.90
2018-09-30T09:12:17.966Z,1.70
2018-09-30T09:14:45.044Z,2.17
2018-09-30T09:17:12.147Z,1.80
2018-09-30T09:19:39.242Z,2.10
2018-09-30T09:22:06.344Z,2.30
2018-09-30T09:24:33.528Z,1.60
2018-09-30T09:27:00.700Z,1.43
2018-09-30T09:29:27.829Z,1.83
2018-09-30T09:31:54.940Z,1.90
2018-09-30T09:34:22.036Z,1.97
2018-09-30T09:36:49.147Z,1.80
2018-09-30T09:39:16.247Z,2.00
2018-09-30T09:41:43.331Z,2.00
2018-09-30T09:44:10.451Z,1.83
2018-09-30T09:46:37.544Z,1.60
2018-09-30T09:49:04.664Z,1.70
2018-09-30T09:51:31.760Z,1.70
2018-09-30T09:53:58.858Z,2.07
2018-09-30T09:56:25.999Z,1.70
2018-09-30T09:58:53.181Z,1.60
2018-09-30T10:01:20.215Z,1.60
2018-09-30T10:03:47.311Z,1.70
2018-09-30T10:06:14.392Z,2.10
2018-09-30T10:08:41.595Z,1.73
2018-09-30T10:11:08.689Z,1.70
2018-09-30T10:13:35.803Z,1.93
2018-09-30T10:16:02.912Z,1.77
2018-09-30T10:18:30.032Z,1.77
2018-09-30T10:20:57.167Z,1.57
2018-09-30T10:23:24.270Z,1.60
2018-09-30T10:25:51.346Z,1.80
2018-09-30T10:28:18.664Z,1.50
2018-09-30T10:30:45.784Z,1.80
2018-09-30T10:33:12.875Z,1.50
2018-09-30T10:35:40.211Z,1.80
2018-09-30T10:38:07.464Z,1.60
2018-09-30T10:40:34.525Z,1.90
2018-09-30T10:43:01.646Z,1.80
2018-09-30T10:45:28.742Z,1.77
2018-09-30T10:47:55.879Z,1.73
2018-09-30T10:50:22.975Z,1.50
2018-09-30T10:52:50.075Z,1.80
2018-09-30T10:55:17.208Z,1.60
2018-09-30T10:57:44.332Z,1.90
2018-09-30T11:00:11.452Z,1.27
2018-09-30T11:02:38.567Z,1.43
2018-09-30T11:05:05.653Z,1.57
2018-09-30T11:07:32.731Z,1.43
2018-09-30T11:09:59.901Z,1.70
2018-09-30T11:12:26.964Z,1.60
2018-09-30T11:14:54.056Z,1.30
2018-09-30T11:17:21.148Z,1.67
2018-09-30T11:19:48.235Z,1.33
2018-09-30T11:22:15.339Z,1.67
2018-09-30T11:24:42.460Z,2.03
2018-09-30T11:27:09.564Z,1.90
2018-09-30T11:29:36.653Z,1.30
2018-09-30T11:32:03.772Z,1.30
2018-09-30T11:34:30.889Z,1.83
2018-09-30T11:36:58.015Z,1.50
2018-09-30T11:39:25.110Z,1.40
2018-09-30T11:41:52.211Z,1.50
2018-09-30T11:44:19.315Z,1.30
2018-09-30T11:46:46.423Z,1.50
2018-09-30T11:49:13.520Z,1.50
2018-09-30T11:51:40.616Z,1.17
2018-09-30T11:54:07.712Z,1.47
2018-09-30T11:56:34.807Z,1.30
2018-09-30T11:59:01.888Z,1.53
2018-09-30T12:01:28.985Z,1.13
2018-09-30T12:03:56.142Z,1.57
2018-09-30T12:06:23.255Z,1.37
2018-09-30T12:08:50.348Z,1.30
2018-09-30T12:11:17.460Z,1.20
2018-09-30T12:13:44.573Z,1.20
2018-09-30T12:16:11.663Z,1.53
2018-09-30T12:18:38.787Z,1.47
2018-09-30T12:21:05.830Z,1.20
2018-09-30T12:23:32.928Z,1.40
2018-09-30T12:26:00.042Z,1.40
2018-09-30T12:28:27.139Z,1.33
2018-09-30T12:30:54.244Z,1.53
2018-09-30T12:33:21.349Z,1.23
2018-09-30T12:35:48.432Z,1.10
2018-09-30T12:38:15.540Z,1.37
2018-09-30T12:40:42.643Z,1.30
2018-09-30T12:43:09.749Z,1.47
2018-09-30T12:45:36.821Z,1.13
2018-09-30T12:48:03.923Z,1.20
2018-09-30T12:50:31.023Z,1.40
2018-09-30T12:52:58.135Z,1.53
2018-09-30T12:55:25.227Z,1.30
2018-09-30T12:57:52.377Z,1.40
2018-09-30T13:00:19.490Z,1.00
2018-09-30T13:02:46.636Z,1.33
2018-09-30T13:05:13.728Z,1.13
2018-09-30T13:07:40.850Z,1.17
2018-09-30T13:10:07.960Z,1.20
2018-09-30T13:12:35.055Z,1.40
2018-09-30T13:15:02.163Z,1.17
2018-09-30T13:17:29.251Z,1.67
2018-09-30T13:19:56.367Z,1.17
2018-09-30T13:22:23.466Z,1.20
2018-09-30T13:24:50.536Z,1.17
2018-09-30T13:27:17.667Z,1.20
2018-09-30T13:29:44.803Z,1.50
2018-09-30T13:32:11.891Z,1.37
2018-09-30T13:34:38.986Z,1.23
2018-09-30T13:37:06.087Z,1.00
2018-09-30T13:39:33.235Z,1.20
2018-09-30T13:42:00.322Z,1.13
2018-09-30T13:44:27.480Z,1.20
2018-09-30T13:46:54.575Z,1.00
2018-09-30T13:49:21.687Z,1.33
2018-09-30T13:51:48.791Z,1.20
2018-09-30T13:54:15.916Z,1.20
2018-09-30T13:56:43.011Z,1.00
2018-09-30T13:59:10.108Z,1.23
2018-09-30T14:01:37.188Z,1.00
2018-09-30T14:04:04.315Z,1.00
2018-09-30T14:06:31.615Z,1.27
2018-09-30T14:08:59.030Z,0.90
2018-09-30T14:11:26.123Z,1.20
2018-09-30T14:13:53.223Z,1.13
2018-09-30T14:16:20.299Z,1.00
2018-09-30T14:18:47.386Z,1.27
2018-09-30T14:21:14.475Z,1.10
2018-09-30T14:23:41.571Z,1.17
2018-09-30T14:26:08.682Z,1.40
2018-09-30T14:28:35.777Z,1.10
2018-09-30T14:31:02.925Z,1.10
2018-09-30T14:33:30.059Z,1.00
2018-09-30T14:35:57.145Z,0.83
2018-09-30T14:38:24.235Z,1.03
2018-09-30T14:40:51.343Z,1.13
2018-09-30T14:43:18.474Z,0.93
2018-09-30T14:45:45.544Z,1.20
2018-09-30T14:48:12.698Z,0.90
2018-09-30T14:50:39.720Z,0.90
2018-09-30T14:53:06.817Z,1.00
2018-09-30T14:55:33.899Z,1.10
2018-09-30T14:58:01.004Z,0.93
2018-09-30T15:00:28.120Z,1.10
2018-09-30T15:02:55.217Z,0.97
2018-09-30T15:05:22.319Z,1.07
2018-09-30T15:07:49.434Z,0.80
2018-09-30T15:10:16.537Z,1.13
2018-09-30T15:12:43.680Z,0.97
2018-09-30T15:15:10.818Z,0.90
2018-09-30T15:17:39.010Z,1.03
2018-09-30T15:20:06.116Z,1.00
2018-09-30T15:22:33.243Z,0.90
2018-09-30T15:25:00.519Z,1.37
2018-09-30T15:27:27.825Z,1.17
2018-09-30T15:29:54.959Z,1.00
2018-09-30T15:32:22.057Z,0.80
2018-09-30T15:34:49.163Z,0.77
2018-09-30T15:37:16.252Z,1.10
2018-09-30T15:39:43.719Z,1.20
2018-09-30T15:42:10.834Z,1.30
2018-09-30T15:44:37.920Z,0.93
2018-09-30T15:47:05.029Z,1.10
2018-09-30T15:49:32.124Z,1.03
2018-09-30T15:51:59.237Z,1.10
2018-09-30T15:54:26.408Z,1.00
2018-09-30T15:56:53.516Z,1.07
2018-09-30T15:59:20.592Z,0.77
2018-09-30T16:01:47.696Z,1.10
2018-09-30T16:04:14.787Z,1.20
2018-09-30T16:06:41.900Z,1.07
2018-09-30T16:09:09.007Z,1.10
2018-09-30T16:11:36.135Z,0.93
2018-09-30T16:14:03.258Z,0.90
2018-09-30T16:16:30.353Z,1.00
2018-09-30T16:18:57.562Z,0.97
2018-09-30T16:21:24.707Z,1.37
2018-09-30T16:23:51.843Z,1.10
2018-09-30T16:26:18.940Z,0.73
2018-09-30T16:28:46.023Z,0.90
2018-09-30T16:31:13.107Z,0.87
2018-09-30T16:33:40.263Z,1.13
2018-09-30T16:36:07.355Z,1.03
2018-09-30T16:38:34.471Z,0.80
2018-09-30T16:41:01.576Z,1.00
2018-09-30T16:43:28.671Z,1.03
2018-09-30T16:45:55.784Z,1.07
2018-09-30T16:48:22.887Z,0.80
2018-09-30T16:50:49.992Z,0.90
2018-09-30T16:53:17.091Z,0.93
2018-09-30T16:55:44.183Z,0.90
2018-09-30T16:58:11.292Z,1.10
2018-09-30T17:00:38.396Z,1.00
2018-09-30T17:03:05.510Z,1.03
2018-09-30T17:05:32.621Z,0.70
2018-09-30T17:07:59.738Z,1.03
2018-09-30T17:10:26.847Z,0.97
2018-09-30T17:12:53.949Z,1.40
2018-09-30T17:15:21.326Z,1.30
2018-09-30T17:17:48.434Z,1.10
2018-09-30T17:20:15.528Z,1.20
2018-09-30T17:22:42.600Z,1.20
2018-09-30T17:25:09.748Z,1.10
2018-09-30T17:27:36.890Z,1.00
2018-09-30T17:30:04.016Z,1.13
2018-09-30T17:32:31.107Z,1.17
2018-09-30T17:34:58.199Z,1.37
2018-09-30T17:37:25.279Z,1.30
2018-09-30T17:39:52.751Z,1.43
2018-09-30T17:42:19.849Z,1.27
2018-09-30T17:44:46.956Z,1.00
2018-09-30T17:47:14.091Z,1.70
2018-09-30T17:49:41.171Z,1.60
2018-09-30T17:52:08.267Z,2.00
2018-09-30T17:54:35.355Z,1.70
2018-09-30T17:57:02.439Z,1.70
2018-09-30T17:59:29.552Z,1.50
2018-09-30T18:01:56.702Z,1.70
2018-09-30T18:04:23.789Z,1.90
2018-09-30T18:06:50.927Z,1.53
2018-09-30T18:09:18.043Z,2.13
2018-09-30T18:11:45.283Z,1.90
2018-09-30T18:14:12.412Z,2.07
2018-09-30T18:16:39.511Z,2.30
2018-09-30T18:19:06.624Z,2.10
2018-09-30T18:21:33.744Z,2.13
2018-09-30T18:24:00.839Z,2.40
2018-09-30T18:26:27.918Z,2.57
2018-09-30T18:28:55.002Z,2.30
2018-09-30T18:31:22.095Z,2.20
2018-09-30T18:33:49.199Z,2.00
2018-09-30T18:36:16.288Z,2.40
2018-09-30T18:38:43.387Z,2.30
2018-09-30T18:41:10.479Z,2.43
2018-09-30T18:43:37.574Z,2.10
2018-09-30T18:46:04.656Z,2.43
2018-09-30T18:48:31.741Z,2.40
2018-09-30T18:50:58.866Z,2.47
2018-09-30T18:53:25.972Z,2.40
2018-09-30T18:55:53.123Z,2.57
2018-09-30T18:58:20.710Z,2.23
2018-09-30T19:00:47.843Z,3.00
2018-09-30T19:03:14.965Z,2.47
2018-09-30T19:05:42.103Z,2.67
2018-09-30T19:08:09.207Z,2.93
2018-09-30T19:10:36.300Z,2.53
2018-09-30T19:13:03.406Z,2.20
2018-09-30T19:15:30.520Z,2.70
2018-09-30T19:17:57.616Z,2.47
2018-09-30T19:20:24.753Z,3.03
2018-09-30T19:22:52.387Z,2.90
2018-09-30T19:25:19.502Z,2.67
2018-09-30T19:27:46.879Z,3.37
2018-09-30T19:30:14.058Z,2.60
2018-09-30T19:32:41.119Z,2.73
2018-09-30T19:35:08.251Z,3.33
2018-09-30T19:37:35.483Z,3.30
2018-09-30T19:40:02.727Z,3.10
2018-09-30T19:42:29.839Z,3.60
2018-09-30T19:44:56.944Z,3.33
2018-09-30T19:47:24.028Z,3.00
2018-09-30T19:49:51.131Z,3.07
2018-09-30T19:52:18.198Z,3.30
2018-09-30T19:54:45.275Z,3.33
2018-09-30T19:57:12.359Z,3.60
2018-09-30T19:59:39.456Z,3.23
2018-09-30T20:02:07.219Z,3.57
2018-09-30T20:04:34.326Z,3.70
2018-09-30T20:07:01.413Z,3.53
2018-09-30T20:09:28.583Z,3.83
2018-09-30T20:11:55.608Z,3.27
2018-09-30T20:14:22.692Z,3.63
2018-09-30T20:16:49.802Z,3.37
2018-09-30T20:19:16.883Z,3.50
2018-09-30T20:21:44.016Z,3.90
2018-09-30T20:24:11.103Z,4.30
2018-09-30T20:26:38.171Z,3.73
2018-09-30T20:29:05.262Z,3.90
2018-09-30T20:31:32.411Z,3.83
2018-09-30T20:33:59.512Z,3.53
2018-09-30T20:36:26.616Z,4.20
2018-09-30T20:38:53.708Z,3.50
2018-09-30T20:41:20.805Z,4.20
2018-09-30T20:43:48.252Z,3.83
2018-09-30T20:46:15.326Z,3.60
2018-09-30T20:48:42.488Z,4.67
2018-09-30T20:51:09.516Z,3.93
2018-09-30T20:53:36.616Z,3.87
2018-09-30T20:56:03.753Z,4.27
2018-09-30T20:58:30.818Z,3.90
2018-09-30T21:00:57.908Z,4.40
2018-09-30T21:03:25.049Z,4.20
2018-09-30T21:06:29.736Z,4.57
2018-09-30T21:08:56.855Z,4.60
2018-09-30T21:11:23.960Z,4.90
2018-09-30T21:13:51.038Z,4.27
2018-09-30T21:16:18.135Z,4.20
2018-09-30T21:18:45.434Z,4.93
2018-09-30T21:21:12.593Z,4.37
2018-09-30T21:23:39.763Z,4.20
2018-09-30T21:26:06.871Z,4.50
2018-09-30T21:28:33.984Z,4.00
2018-09-30T21:31:01.071Z,4.60
2018-09-30T21:33:28.199Z,5.10
2018-09-30T21:35:55.404Z,4.93
2018-09-30T21:38:22.500Z,4.70
2018-09-30T21:40:49.567Z,4.20
2018-09-30T21:43:17.558Z,4.40
2018-09-30T21:45:44.703Z,4.77
2018-09-30T21:48:12.942Z,5.00
2018-09-30T21:50:40.070Z,4.53
2018-09-30T21:53:07.170Z,4.80
2018-09-30T21:55:34.271Z,5.27
2018-09-30T21:58:01.584Z,4.70
2018-09-30T22:00:34.373Z,4.60
2018-09-30T22:03:01.506Z,4.93
2018-09-30T22:05:29.062Z,4.37
2018-09-30T22:07:56.164Z,4.90
2018-09-30T22:10:23.395Z,4.90
2018-09-30T22:12:50.545Z,4.90
2018-09-30T22:15:17.654Z,4.47
2018-09-30T22:17:44.863Z,4.97
2018-09-30T22:20:11.933Z,4.77
2018-09-30T22:22:39.183Z,4.83
2018-09-30T22:25:06.303Z,4.50
2018-09-30T22:27:33.400Z,4.87
2018-09-30T22:30:00.500Z,5.40
2018-09-30T22:32:27.583Z,5.17
2018-09-30T22:34:55.189Z,4.60
2018-09-30T22:37:22.256Z,5.03
2018-09-30T22:39:49.363Z,5.00
2018-09-30T22:42:16.478Z,5.50
2018-09-30T22:44:43.584Z,5.23
2018-09-30T22:47:10.719Z,4.70
2018-09-30T22:49:37.956Z,4.63
2018-09-30T22:52:05.040Z,5.20
2018-09-30T22:54:32.128Z,5.13
2018-09-30T22:56:59.239Z,4.53
2018-09-30T22:59:26.346Z,5.10
2018-09-30T23:01:53.444Z,4.97
2018-09-30T23:04:20.548Z,5.13
2018-09-30T23:06:47.632Z,5.07
2018-09-30T23:09:14.750Z,5.90
2018-09-30T23:11:41.879Z,5.57
2018-09-30T23:14:08.967Z,5.30
2018-09-30T23:16:36.069Z,5.30
2018-09-30T23:19:03.139Z,5.37
2018-09-30T23:21:30.338Z,5.70
2018-09-30T23:23:57.431Z,5.13
2018-09-30T23:26:24.524Z,5.13
2018-09-30T23:28:51.588Z,5.07
2018-09-30T23:31:18.681Z,5.23
2018-09-30T23:33:45.812Z,4.83
2018-09-30T23:36:13.536Z,6.00
2018-09-30T23:38:40.642Z,6.10
2018-09-30T23:41:07.732Z,5.20
2018-09-30T23:43:34.840Z,6.00
2018-09-30T23:46:01.911Z,5.40
2018-09-30T23:48:28.987Z,5.13
2018-09-30T23:50:56.079Z,5.17
2018-09-30T23:53:23.151Z,5.50
2018-09-30T23:55:50.393Z,5.57
2018-09-30T23:58:17.519Z,6.10
